sensor_id;sensor_type;location;lat;lon;timestamp;pressure;altitude;pressure_sealevel;temperature;humidity
71361;BME280;59166;48.908;1.870;2022-07-29T00:01:56;100304.72;;;18.80;49.08
71361;BME280;59166;48.908;1.870;2022-07-29T00:06:56;100300.25;;;18.84;46.65
71361;BME280;59166;48.908;1.870;2022-07-29T00:11:59;100306.34;;;18.81;47.63
71361;BME280;59166;48.908;1.870;2022-07-29T00:17:02;100286.69;;;18.79;51.94
71361;BME280;59166;48.908;1.870;2022-07-29T00:22:02;100284.94;;;18.52;54.41
71361;BME280;59166;48.908;1.870;2022-07-29T00:27:03;100284.09;;;18.21;51.96
71361;BME280;59166;48.908;1.870;2022-07-29T00:32:06;100288.72;;;17.98;54.16
71361;BME280;59166;48.908;1.870;2022-07-29T00:37:07;100291.84;;;18.05;53.22
71361;BME280;59166;48.908;1.870;2022-07-29T00:42:07;100291.59;;;17.93;53.45
71361;BME280;59166;48.908;1.870;2022-07-29T00:47:10;100290.63;;;17.75;53.36
71361;BME280;59166;48.908;1.870;2022-07-29T00:52:12;100289.88;;;17.48;53.48
71361;BME280;59166;48.908;1.870;2022-07-29T00:57:13;100285.50;;;17.46;53.78
71361;BME280;59166;48.908;1.870;2022-07-29T01:02:16;100279.56;;;17.44;54.13
71361;BME280;59166;48.908;1.870;2022-07-29T01:07:17;100283.41;;;17.43;55.16
71361;BME280;59166;48.908;1.870;2022-07-29T01:12:21;100272.38;;;17.49;55.22
71361;BME280;59166;48.908;1.870;2022-07-29T01:17:27;100281.81;;;17.42;55.43
71361;BME280;59166;48.908;1.870;2022-07-29T01:22:44;100275.22;;;17.30;54.34
71361;BME280;59166;48.908;1.870;2022-07-29T01:28:14;100272.41;;;17.21;54.02
71361;BME280;59166;48.908;1.870;2022-07-29T01:33:20;100277.88;;;17.21;55.03
71361;BME280;59166;48.908;1.870;2022-07-29T01:38:25;100278.16;;;17.20;56.09
71361;BME280;59166;48.908;1.870;2022-07-29T01:43:36;100277.38;;;17.19;56.11
71361;BME280;59166;48.908;1.870;2022-07-29T01:48:45;100280.88;;;17.06;56.36
71361;BME280;59166;48.908;1.870;2022-07-29T01:53:51;100281.19;;;16.91;57.56
71361;BME280;59166;48.908;1.870;2022-07-29T01:58:54;100288.44;;;16.68;57.31
71361;BME280;59166;48.908;1.870;2022-07-29T02:03:59;100282.34;;;16.58;58.13
71361;BME280;59166;48.908;1.870;2022-07-29T02:09:03;100289.97;;;16.42;57.87
71361;BME280;59166;48.908;1.870;2022-07-29T02:14:07;100291.13;;;16.22;59.34
71361;BME280;59166;48.908;1.870;2022-07-29T02:19:12;100288.50;;;16.17;59.29
71361;BME280;59166;48.908;1.870;2022-07-29T02:24:15;100294.38;;;16.06;60.02
71361;BME280;59166;48.908;1.870;2022-07-29T02:29:19;100298.97;;;16.10;60.87
71361;BME280;59166;48.908;1.870;2022-07-29T02:34:23;100291.31;;;16.12;60.93
71361;BME280;59166;48.908;1.870;2022-07-29T02:39:26;100292.75;;;16.05;59.95
71361;BME280;59166;48.908;1.870;2022-07-29T02:44:28;100301.63;;;15.97;61.14
71361;BME280;59166;48.908;1.870;2022-07-29T02:49:34;100301.44;;;15.88;62.22
71361;BME280;59166;48.908;1.870;2022-07-29T02:54:39;100303.97;;;15.84;61.05
71361;BME280;59166;48.908;1.870;2022-07-29T02:59:41;100312.44;;;15.83;62.23
71361;BME280;59166;48.908;1.870;2022-07-29T03:04:46;100309.28;;;15.76;62.46
71361;BME280;59166;48.908;1.870;2022-07-29T03:09:48;100303.28;;;15.55;62.90
71361;BME280;59166;48.908;1.870;2022-07-29T03:14:50;100309.63;;;15.27;63.45
71361;BME280;59166;48.908;1.870;2022-07-29T03:19:53;100305.06;;;15.46;62.81
71361;BME280;59166;48.908;1.870;2022-07-29T03:24:55;100308.81;;;15.50;63.02
71361;BME280;59166;48.908;1.870;2022-07-29T03:29:55;100309.56;;;15.56;62.51
71361;BME280;59166;48.908;1.870;2022-07-29T03:34:57;100307.69;;;15.51;61.98
71361;BME280;59166;48.908;1.870;2022-07-29T03:39:58;100312.69;;;15.44;62.43
71361;BME280;59166;48.908;1.870;2022-07-29T03:45:03;100309.94;;;15.25;65.06
71361;BME280;59166;48.908;1.870;2022-07-29T03:50:08;100316.56;;;15.19;65.50
71361;BME280;59166;48.908;1.870;2022-07-29T03:55:10;100314.53;;;15.06;66.85
71361;BME280;59166;48.908;1.870;2022-07-29T04:00:13;100317.28;;;15.01;65.98
71361;BME280;59166;48.908;1.870;2022-07-29T04:05:16;100313.66;;;15.11;64.94
71361;BME280;59166;48.908;1.870;2022-07-29T04:10:18;100311.47;;;15.13;63.43
71361;BME280;59166;48.908;1.870;2022-07-29T04:15:19;100313.75;;;15.24;64.85
71361;BME280;59166;48.908;1.870;2022-07-29T04:20:21;100310.75;;;15.26;63.56
71361;BME280;59166;48.908;1.870;2022-07-29T04:25:21;100314.81;;;15.28;64.90
71361;BME280;59166;48.908;1.870;2022-07-29T04:30:22;100322.09;;;15.33;64.97
71361;BME280;59166;48.908;1.870;2022-07-29T04:35:24;100329.72;;;15.31;64.75
71361;BME280;59166;48.908;1.870;2022-07-29T04:40:25;100327.78;;;15.36;65.43
71361;BME280;59166;48.908;1.870;2022-07-29T04:45:26;100334.78;;;15.42;65.86
71361;BME280;59166;48.908;1.870;2022-07-29T04:50:28;100340.97;;;15.48;66.68
71361;BME280;59166;48.908;1.870;2022-07-29T04:55:28;100346.41;;;15.48;66.87
71361;BME280;59166;48.908;1.870;2022-07-29T05:00:29;100343.75;;;15.43;68.01
71361;BME280;59166;48.908;1.870;2022-07-29T05:05:31;100354.47;;;15.34;67.78
71361;BME280;59166;48.908;1.870;2022-07-29T05:10:32;100354.53;;;15.29;67.91
71361;BME280;59166;48.908;1.870;2022-07-29T05:15:32;100360.56;;;15.26;67.74
71361;BME280;59166;48.908;1.870;2022-07-29T05:20:35;100359.50;;;15.22;67.71
71361;BME280;59166;48.908;1.870;2022-07-29T05:25:35;100355.69;;;15.23;68.99
71361;BME280;59166;48.908;1.870;2022-07-29T05:30:36;100352.31;;;15.31;67.93
71361;BME280;59166;48.908;1.870;2022-07-29T05:35:38;100351.47;;;15.36;68.59
71361;BME280;59166;48.908;1.870;2022-07-29T05:40:38;100364.19;;;15.40;68.21
71361;BME280;59166;48.908;1.870;2022-07-29T05:45:39;100373.97;;;15.41;69.37
71361;BME280;59166;48.908;1.870;2022-07-29T05:50:41;100372.66;;;15.39;69.31
71361;BME280;59166;48.908;1.870;2022-07-29T05:55:42;100373.25;;;15.36;71.53
71361;BME280;59166;48.908;1.870;2022-07-29T06:00:43;100382.97;;;15.42;72.66
71361;BME280;59166;48.908;1.870;2022-07-29T06:05:45;100393.22;;;15.50;72.41
71361;BME280;59166;48.908;1.870;2022-07-29T06:10:46;100387.88;;;15.64;72.74
71361;BME280;59166;48.908;1.870;2022-07-29T06:15:46;100397.94;;;15.87;72.75
71361;BME280;59166;48.908;1.870;2022-07-29T06:20:48;100403.00;;;16.17;69.88
71361;BME280;59166;48.908;1.870;2022-07-29T06:25:49;100404.44;;;16.28;70.17
71361;BME280;59166;48.908;1.870;2022-07-29T06:30:50;100401.66;;;16.33;70.38
71361;BME280;59166;48.908;1.870;2022-07-29T06:35:52;100397.56;;;16.50;71.22
71361;BME280;59166;48.908;1.870;2022-07-29T06:40:53;100403.28;;;16.67;70.08
71361;BME280;59166;48.908;1.870;2022-07-29T06:45:53;100405.69;;;16.87;67.04
71361;BME280;59166;48.908;1.870;2022-07-29T06:50:55;100402.50;;;17.12;67.13
71361;BME280;59166;48.908;1.870;2022-07-29T06:55:56;100402.47;;;17.44;66.42
71361;BME280;59166;48.908;1.870;2022-07-29T07:00:57;100403.16;;;17.77;64.52
71361;BME280;59166;48.908;1.870;2022-07-29T07:05:59;100401.75;;;18.29;62.61
71361;BME280;59166;48.908;1.870;2022-07-29T07:11:00;100415.34;;;18.57;63.55
71361;BME280;59166;48.908;1.870;2022-07-29T07:16:01;100414.22;;;18.80;62.35
71361;BME280;59166;48.908;1.870;2022-07-29T07:21:03;100418.34;;;18.99;60.21
71361;BME280;59166;48.908;1.870;2022-07-29T07:26:04;100424.19;;;19.07;60.75
71361;BME280;59166;48.908;1.870;2022-07-29T07:31:05;100430.09;;;19.22;58.31
71361;BME280;59166;48.908;1.870;2022-07-29T07:36:07;100436.81;;;19.38;57.06
71361;BME280;59166;48.908;1.870;2022-07-29T07:41:07;100441.81;;;19.84;52.07
71361;BME280;59166;48.908;1.870;2022-07-29T07:46:08;100447.56;;;20.22;55.04
71361;BME280;59166;48.908;1.870;2022-07-29T07:51:10;100446.16;;;20.51;56.67
71361;BME280;59166;48.908;1.870;2022-07-29T07:56:11;100453.09;;;20.74;53.42
71361;BME280;59166;48.908;1.870;2022-07-29T08:01:11;100450.78;;;21.10;51.85
71361;BME280;59166;48.908;1.870;2022-07-29T08:06:13;100447.66;;;21.37;53.58
71361;BME280;59166;48.908;1.870;2022-07-29T08:11:14;100437.63;;;21.33;50.29
71361;BME280;59166;48.908;1.870;2022-07-29T08:16:14;100437.56;;;21.59;49.72
71361;BME280;59166;48.908;1.870;2022-07-29T08:21:17;100428.47;;;21.96;49.65
71361;BME280;59166;48.908;1.870;2022-07-29T08:26:18;100437.91;;;22.36;48.79
71361;BME280;59166;48.908;1.870;2022-07-29T08:31:19;100435.97;;;22.58;44.96
71361;BME280;59166;48.908;1.870;2022-07-29T08:36:21;100432.66;;;22.85;46.06
71361;BME280;59166;48.908;1.870;2022-07-29T08:41:22;100438.34;;;23.33;43.27
71361;BME280;59166;48.908;1.870;2022-07-29T08:46:23;100434.69;;;23.78;45.19
71361;BME280;59166;48.908;1.870;2022-07-29T08:51:25;100433.78;;;24.10;44.44
71361;BME280;59166;48.908;1.870;2022-07-29T08:56:27;100435.50;;;24.55;43.26
71361;BME280;59166;48.908;1.870;2022-07-29T09:01:29;100439.34;;;24.78;42.72
71361;BME280;59166;48.908;1.870;2022-07-29T09:06:35;100426.63;;;25.32;38.62
71361;BME280;59166;48.908;1.870;2022-07-29T09:11:37;100428.81;;;26.05;38.81
71361;BME280;59166;48.908;1.870;2022-07-29T09:16:49;100430.63;;;26.32;35.04
71361;BME280;59166;48.908;1.870;2022-07-29T09:21:51;100432.00;;;26.58;32.47
71361;BME280;59166;48.908;1.870;2022-07-29T09:26:52;100445.00;;;26.92;34.61
71361;BME280;59166;48.908;1.870;2022-07-29T09:31:54;100437.63;;;27.22;34.20
71361;BME280;59166;48.908;1.870;2022-07-29T09:36:56;100439.06;;;27.35;32.87
71361;BME280;59166;48.908;1.870;2022-07-29T09:41:59;100442.13;;;27.30;32.36
71361;BME280;59166;48.908;1.870;2022-07-29T09:47:01;100452.97;;;27.58;31.37
71361;BME280;59166;48.908;1.870;2022-07-29T09:52:06;100447.34;;;27.55;31.91
71361;BME280;59166;48.908;1.870;2022-07-29T09:57:08;100446.09;;;27.75;33.07
71361;BME280;59166;48.908;1.870;2022-07-29T10:02:11;100452.22;;;27.84;30.78
71361;BME280;59166;48.908;1.870;2022-07-29T10:07:13;100446.91;;;27.75;32.69
71361;BME280;59166;48.908;1.870;2022-07-29T10:12:14;100448.84;;;27.97;33.74
71361;BME280;59166;48.908;1.870;2022-07-29T10:17:16;100449.31;;;27.77;32.63
71361;BME280;59166;48.908;1.870;2022-07-29T10:22:18;100442.91;;;27.73;32.10
71361;BME280;59166;48.908;1.870;2022-07-29T10:27:19;100432.03;;;27.64;31.97
71361;BME280;59166;48.908;1.870;2022-07-29T10:32:31;100442.16;;;27.76;32.51
71361;BME280;59166;48.908;1.870;2022-07-29T10:37:51;100446.31;;;27.89;33.00
71361;BME280;59166;48.908;1.870;2022-07-29T10:42:55;100442.63;;;28.04;29.59
71361;BME280;59166;48.908;1.870;2022-07-29T10:48:04;100433.47;;;28.03;31.80
71361;BME280;59166;48.908;1.870;2022-07-29T10:53:06;100442.97;;;28.29;31.24
71361;BME280;59166;48.908;1.870;2022-07-29T10:58:17;100445.97;;;28.73;32.38
71361;BME280;59166;48.908;1.870;2022-07-29T11:03:42;100443.03;;;28.92;31.12
71361;BME280;59166;48.908;1.870;2022-07-29T11:08:45;100443.97;;;29.07;28.72
71361;BME280;59166;48.908;1.870;2022-07-29T11:14:06;100444.72;;;29.03;30.65
71361;BME280;59166;48.908;1.870;2022-07-29T11:19:20;100443.63;;;29.48;30.51
71361;BME280;59166;48.908;1.870;2022-07-29T11:24:23;100452.81;;;29.52;28.66
71361;BME280;59166;48.908;1.870;2022-07-29T11:29:24;100452.84;;;29.19;30.07
71361;BME280;59166;48.908;1.870;2022-07-29T11:34:27;100443.16;;;29.39;29.00
71361;BME280;59166;48.908;1.870;2022-07-29T11:39:33;100453.47;;;29.83;30.47
71361;BME280;59166;48.908;1.870;2022-07-29T11:44:55;100448.81;;;30.01;27.33
71361;BME280;59166;48.908;1.870;2022-07-29T11:49:56;100441.78;;;29.63;30.74
71361;BME280;59166;48.908;1.870;2022-07-29T11:55:01;100435.66;;;29.50;30.68
71361;BME280;59166;48.908;1.870;2022-07-29T12:00:04;100445.63;;;29.99;28.78
71361;BME280;59166;48.908;1.870;2022-07-29T12:05:06;100439.06;;;30.32;28.19
71361;BME280;59166;48.908;1.870;2022-07-29T12:10:08;100445.25;;;30.69;26.43
71361;BME280;59166;48.908;1.870;2022-07-29T12:15:16;100436.44;;;30.57;27.01
71361;BME280;59166;48.908;1.870;2022-07-29T12:20:23;100444.41;;;30.58;28.30
71361;BME280;59166;48.908;1.870;2022-07-29T12:25:25;100437.72;;;30.77;26.98
71361;BME280;59166;48.908;1.870;2022-07-29T12:30:38;100435.03;;;31.09;27.84
71361;BME280;59166;48.908;1.870;2022-07-29T12:35:39;100426.31;;;31.45;27.24
71361;BME280;59166;48.908;1.870;2022-07-29T12:40:42;100427.72;;;30.76;28.88
71361;BME280;59166;48.908;1.870;2022-07-29T12:45:45;100427.47;;;31.20;28.82
71361;BME280;59166;48.908;1.870;2022-07-29T12:50:54;100429.47;;;31.19;25.93
71361;BME280;59166;48.908;1.870;2022-07-29T12:55:57;100436.66;;;31.27;26.46
71361;BME280;59166;48.908;1.870;2022-07-29T13:01:05;100435.88;;;31.37;25.48
71361;BME280;59166;48.908;1.870;2022-07-29T13:06:06;100429.50;;;31.90;27.86
71361;BME280;59166;48.908;1.870;2022-07-29T13:11:08;100440.28;;;31.88;25.99
71361;BME280;59166;48.908;1.870;2022-07-29T13:16:08;100429.50;;;31.40;26.42
71361;BME280;59166;48.908;1.870;2022-07-29T13:21:13;100436.16;;;30.14;28.90
71361;BME280;59166;48.908;1.870;2022-07-29T13:26:15;100436.41;;;29.44;31.46
71361;BME280;59166;48.908;1.870;2022-07-29T13:31:16;100437.75;;;29.61;28.72
71361;BME280;59166;48.908;1.870;2022-07-29T13:36:17;100430.94;;;30.78;29.08
71361;BME280;59166;48.908;1.870;2022-07-29T13:41:19;100424.28;;;30.17;28.64
71361;BME280;59166;48.908;1.870;2022-07-29T13:46:19;100441.34;;;29.61;28.92
71361;BME280;59166;48.908;1.870;2022-07-29T13:51:20;100440.31;;;29.36;30.95
71361;BME280;59166;48.908;1.870;2022-07-29T13:56:22;100435.34;;;30.07;30.16
71361;BME280;59166;48.908;1.870;2022-07-29T14:01:23;100429.47;;;30.26;28.54
71361;BME280;59166;48.908;1.870;2022-07-29T14:06:24;100444.81;;;29.95;28.80
71361;BME280;59166;48.908;1.870;2022-07-29T14:11:26;100442.81;;;29.92;29.74
71361;BME280;59166;48.908;1.870;2022-07-29T14:16:27;100436.81;;;29.42;30.29
71361;BME280;59166;48.908;1.870;2022-07-29T14:21:28;100429.59;;;29.01;30.29
71361;BME280;59166;48.908;1.870;2022-07-29T14:26:30;100431.69;;;29.11;31.28
71361;BME280;59166;48.908;1.870;2022-07-29T14:31:31;100427.91;;;28.93;31.52
71361;BME280;59166;48.908;1.870;2022-07-29T14:36:32;100427.56;;;28.65;34.73
71361;BME280;59166;48.908;1.870;2022-07-29T14:41:34;100429.00;;;28.51;34.11
71361;BME280;59166;48.908;1.870;2022-07-29T14:46:35;100419.91;;;28.55;33.57
71361;BME280;59166;48.908;1.870;2022-07-29T14:51:35;100420.09;;;29.02;32.33
71361;BME280;59166;48.908;1.870;2022-07-29T14:56:38;100423.66;;;28.69;34.98
71361;BME280;59166;48.908;1.870;2022-07-29T15:01:38;100421.03;;;28.20;32.74
71361;BME280;59166;48.908;1.870;2022-07-29T15:06:39;100422.16;;;28.16;33.41
71361;BME280;59166;48.908;1.870;2022-07-29T15:11:41;100407.66;;;28.03;35.84
71361;BME280;59166;48.908;1.870;2022-07-29T15:16:42;100407.41;;;27.85;36.78
71361;BME280;59166;48.908;1.870;2022-07-29T15:21:42;100398.38;;;27.66;35.36
71361;BME280;59166;48.908;1.870;2022-07-29T15:26:45;100410.03;;;27.29;36.58
71361;BME280;59166;48.908;1.870;2022-07-29T15:31:46;100412.00;;;27.29;37.14
71361;BME280;59166;48.908;1.870;2022-07-29T15:36:47;100408.19;;;28.68;35.46
71361;BME280;59166;48.908;1.870;2022-07-29T15:41:49;100423.06;;;29.67;33.42
71361;BME280;59166;48.908;1.870;2022-07-29T15:46:51;100416.38;;;30.33;26.76
71361;BME280;59166;48.908;1.870;2022-07-29T15:51:51;100419.28;;;30.51;30.81
71361;BME280;59166;48.908;1.870;2022-07-29T15:56:54;100424.47;;;29.43;34.97
71361;BME280;59166;48.908;1.870;2022-07-29T16:01:54;100417.41;;;29.16;34.81
71361;BME280;59166;48.908;1.870;2022-07-29T16:06:55;100416.94;;;29.07;35.26
71361;BME280;59166;48.908;1.870;2022-07-29T16:11:57;100407.47;;;28.75;35.08
71361;BME280;59166;48.908;1.870;2022-07-29T16:16:58;100416.63;;;28.75;35.62
71361;BME280;59166;48.908;1.870;2022-07-29T16:21:59;100415.56;;;28.27;35.95
71361;BME280;59166;48.908;1.870;2022-07-29T16:27:01;100412.91;;;29.38;32.31
71361;BME280;59166;48.908;1.870;2022-07-29T16:32:02;100407.13;;;29.61;33.81
71361;BME280;59166;48.908;1.870;2022-07-29T16:37:02;100413.06;;;29.15;36.72
71361;BME280;59166;48.908;1.870;2022-07-29T16:42:05;100401.88;;;29.52;34.39
71361;BME280;59166;48.908;1.870;2022-07-29T16:47:05;100394.56;;;29.33;32.93
71361;BME280;59166;48.908;1.870;2022-07-29T16:52:06;100399.06;;;29.48;33.76
71361;BME280;59166;48.908;1.870;2022-07-29T16:57:08;100402.38;;;29.65;32.08
71361;BME280;59166;48.908;1.870;2022-07-29T17:02:09;100389.28;;;28.84;34.83
71361;BME280;59166;48.908;1.870;2022-07-29T17:07:10;100391.63;;;28.82;32.54
71361;BME280;59166;48.908;1.870;2022-07-29T17:12:12;100395.69;;;29.73;32.09
71361;BME280;59166;48.908;1.870;2022-07-29T17:17:12;100398.06;;;29.74;31.89
71361;BME280;59166;48.908;1.870;2022-07-29T17:22:13;100397.84;;;29.42;32.54
71361;BME280;59166;48.908;1.870;2022-07-29T17:27:15;100390.91;;;28.89;31.60
71361;BME280;59166;48.908;1.870;2022-07-29T17:32:16;100388.19;;;28.29;34.12
71361;BME280;59166;48.908;1.870;2022-07-29T17:37:17;100396.28;;;28.12;35.00
71361;BME280;59166;48.908;1.870;2022-07-29T17:42:19;100391.66;;;27.67;36.36
71361;BME280;59166;48.908;1.870;2022-07-29T17:47:19;100404.91;;;27.31;35.74
71361;BME280;59166;48.908;1.870;2022-07-29T17:52:20;100407.47;;;27.21;35.58
71361;BME280;59166;48.908;1.870;2022-07-29T17:57:22;100412.91;;;27.14;35.32
71361;BME280;59166;48.908;1.870;2022-07-29T18:02:23;100412.09;;;27.13;37.19
71361;BME280;59166;48.908;1.870;2022-07-29T18:07:24;100424.06;;;27.17;37.12
71361;BME280;59166;48.908;1.870;2022-07-29T18:12:26;100421.97;;;27.11;36.55
71361;BME280;59166;48.908;1.870;2022-07-29T18:17:27;100425.28;;;26.97;38.58
71361;BME280;59166;48.908;1.870;2022-07-29T18:22:28;100430.25;;;26.88;38.94
71361;BME280;59166;48.908;1.870;2022-07-29T18:27:30;100423.50;;;26.70;39.48
71361;BME280;59166;48.908;1.870;2022-07-29T18:32:30;100428.63;;;26.48;39.99
71361;BME280;59166;48.908;1.870;2022-07-29T18:37:31;100425.47;;;26.31;41.17
71361;BME280;59166;48.908;1.870;2022-07-29T18:42:33;100423.34;;;26.09;40.53
71361;BME280;59166;48.908;1.870;2022-07-29T18:47:34;100432.69;;;26.00;40.47
71361;BME280;59166;48.908;1.870;2022-07-29T18:52:35;100436.47;;;25.77;40.76
71361;BME280;59166;48.908;1.870;2022-07-29T18:57:37;100427.63;;;25.56;41.67
71361;BME280;59166;48.908;1.870;2022-07-29T19:02:38;100436.25;;;25.38;42.00
71361;BME280;59166;48.908;1.870;2022-07-29T19:07:39;100436.59;;;25.21;42.40
71361;BME280;59166;48.908;1.870;2022-07-29T19:12:41;100448.16;;;24.95;42.31
71361;BME280;59166;48.908;1.870;2022-07-29T19:17:42;100453.13;;;24.90;43.00
71361;BME280;59166;48.908;1.870;2022-07-29T19:22:42;100451.41;;;24.85;43.06
71361;BME280;59166;48.908;1.870;2022-07-29T19:27:44;100455.13;;;24.77;43.00
71361;BME280;59166;48.908;1.870;2022-07-29T19:32:45;100462.63;;;24.65;42.73
71361;BME280;59166;48.908;1.870;2022-07-29T19:37:46;100469.34;;;24.51;42.92
71361;BME280;59166;48.908;1.870;2022-07-29T19:42:48;100475.25;;;24.38;43.53
71361;BME280;59166;48.908;1.870;2022-07-29T19:47:48;100486.19;;;24.34;43.56
71361;BME280;59166;48.908;1.870;2022-07-29T19:52:50;100489.66;;;24.31;42.78
71361;BME280;59166;48.908;1.870;2022-07-29T19:57:52;100496.78;;;24.20;43.46
71361;BME280;59166;48.908;1.870;2022-07-29T20:02:53;100508.78;;;24.12;43.22
71361;BME280;59166;48.908;1.870;2022-07-29T20:07:54;100513.56;;;23.91;44.85
71361;BME280;59166;48.908;1.870;2022-07-29T20:12:56;100528.03;;;23.76;46.15
71361;BME280;59166;48.908;1.870;2022-07-29T20:17:56;100522.06;;;23.74;46.35
71361;BME280;59166;48.908;1.870;2022-07-29T20:22:57;100521.13;;;23.70;46.23
71361;BME280;59166;48.908;1.870;2022-07-29T20:27:59;100522.50;;;23.64;46.17
71361;BME280;59166;48.908;1.870;2022-07-29T20:33:00;100529.59;;;23.52;47.21
71361;BME280;59166;48.908;1.870;2022-07-29T20:38:00;100531.66;;;23.43;46.29
71361;BME280;59166;48.908;1.870;2022-07-29T20:43:02;100535.75;;;23.37;48.04
71361;BME280;59166;48.908;1.870;2022-07-29T20:48:04;100540.53;;;23.28;47.84
71361;BME280;59166;48.908;1.870;2022-07-29T20:53:05;100536.72;;;23.21;48.87
71361;BME280;59166;48.908;1.870;2022-07-29T20:58:07;100546.41;;;23.06;48.85
71361;BME280;59166;48.908;1.870;2022-07-29T21:03:07;100550.38;;;22.96;49.81
71361;BME280;59166;48.908;1.870;2022-07-29T21:08:08;100556.75;;;22.88;49.42
71361;BME280;59166;48.908;1.870;2022-07-29T21:13:10;100560.72;;;22.79;50.28
71361;BME280;59166;48.908;1.870;2022-07-29T21:18:11;100566.69;;;22.60;49.92
71361;BME280;59166;48.908;1.870;2022-07-29T21:23:11;100576.31;;;22.45;49.73
71361;BME280;59166;48.908;1.870;2022-07-29T21:28:14;100582.72;;;22.29;50.17
71361;BME280;59166;48.908;1.870;2022-07-29T21:33:14;100583.09;;;22.19;50.21
71361;BME280;59166;48.908;1.870;2022-07-29T21:38:15;100579.41;;;22.06;50.67
71361;BME280;59166;48.908;1.870;2022-07-29T21:43:17;100586.06;;;21.96;51.56
71361;BME280;59166;48.908;1.870;2022-07-29T21:48:19;100596.00;;;21.89;51.77
71361;BME280;59166;48.908;1.870;2022-07-29T21:53:19;100595.69;;;21.73;51.82
71361;BME280;59166;48.908;1.870;2022-07-29T21:58:22;100603.13;;;21.56;53.38
71361;BME280;59166;48.908;1.870;2022-07-29T22:03:22;100600.88;;;21.49;53.58
71361;BME280;59166;48.908;1.870;2022-07-29T22:08:23;100602.69;;;21.36;53.18
71361;BME280;59166;48.908;1.870;2022-07-29T22:13:25;100592.97;;;21.22;53.62
71361;BME280;59166;48.908;1.870;2022-07-29T22:18:25;100594.63;;;21.14;54.02
71361;BME280;59166;48.908;1.870;2022-07-29T22:23:26;100598.97;;;20.98;54.50
71361;BME280;59166;48.908;1.870;2022-07-29T22:28:28;100605.75;;;20.92;54.56
71361;BME280;59166;48.908;1.870;2022-07-29T22:33:29;100608.03;;;20.90;54.70
71361;BME280;59166;48.908;1.870;2022-07-29T22:38:29;100611.03;;;20.80;55.74
71361;BME280;59166;48.908;1.870;2022-07-29T22:43:32;100613.63;;;20.76;55.37
71361;BME280;59166;48.908;1.870;2022-07-29T22:48:32;100616.66;;;20.75;54.87
71361;BME280;59166;48.908;1.870;2022-07-29T22:53:33;100608.59;;;20.78;54.86
71361;BME280;59166;48.908;1.870;2022-07-29T22:58:35;100610.72;;;20.81;55.22
71361;BME280;59166;48.908;1.870;2022-07-29T23:03:36;100607.81;;;20.86;55.50
71361;BME280;59166;48.908;1.870;2022-07-29T23:08:37;100596.69;;;20.91;55.84
71361;BME280;59166;48.908;1.870;2022-07-29T23:13:39;100599.94;;;20.93;55.72
71361;BME280;59166;48.908;1.870;2022-07-29T23:18:39;100609.16;;;20.97;55.39
71361;BME280;59166;48.908;1.870;2022-07-29T23:23:40;100614.66;;;20.97;55.03
71361;BME280;59166;48.908;1.870;2022-07-29T23:28:42;100619.88;;;20.68;57.00
71361;BME280;59166;48.908;1.870;2022-07-29T23:33:43;100628.53;;;20.44;58.90
71361;BME280;59166;48.908;1.870;2022-07-29T23:38:43;100630.09;;;20.28;56.02
71361;BME280;59166;48.908;1.870;2022-07-29T23:43:45;100617.50;;;20.27;57.35
71361;BME280;59166;48.908;1.870;2022-07-29T23:48:47;100621.41;;;20.26;57.38
71361;BME280;59166;48.908;1.870;2022-07-29T23:53:48;100625.72;;;20.19;57.21
71361;BME280;59166;48.908;1.870;2022-07-29T23:58:50;100628.00;;;20.34;57.00
